createdAt,value
2019-01-28T00:00:37.343Z,971.02
2019-01-28T00:01:37.335Z,971.03
2019-01-28T00:02:37.321Z,971.05
2019-01-28T00:03:37.319Z,971.06
2019-01-28T00:04:37.305Z,971.06
2019-01-28T00:05:37.303Z,971.07
2019-01-28T00:06:37.281Z,971.09
2019-01-28T00:07:37.272Z,971.05
2019-01-28T00:08:37.263Z,971.09
2019-01-28T00:09:37.254Z,971.07
2019-01-28T00:10:37.246Z,971.15
2019-01-28T00:11:37.233Z,971.17
2019-01-28T00:12:37.232Z,971.15
2019-01-28T00:13:37.213Z,971.22
2019-01-28T00:14:37.202Z,971.23
2019-01-28T00:15:37.215Z,971.26
2019-01-28T00:16:37.189Z,971.22
2019-01-28T00:17:37.173Z,971.25
2019-01-28T00:18:37.174Z,971.27
2019-01-28T00:19:37.153Z,971.26
2019-01-28T00:20:37.152Z,971.28
2019-01-28T00:21:37.135Z,971.26
2019-01-28T00:22:37.123Z,971.34
2019-01-28T00:23:37.113Z,971.28
2019-01-28T00:24:37.103Z,971.34
2019-01-28T00:25:37.094Z,971.3
2019-01-28T00:26:37.086Z,971.31
2019-01-28T00:27:37.074Z,971.35
2019-01-28T00:28:37.066Z,971.38
2019-01-28T00:29:37.056Z,971.35
2019-01-28T00:30:37.046Z,971.38
2019-01-28T00:31:37.039Z,971.42
2019-01-28T00:32:37.026Z,971.42
2019-01-28T00:33:37.029Z,971.4
2019-01-28T00:34:37.008Z,971.39
2019-01-28T00:35:36.999Z,971.44
2019-01-28T00:36:36.990Z,971.42
2019-01-28T00:37:36.979Z,971.44
2019-01-28T00:38:36.970Z,971.4
2019-01-28T00:39:36.969Z,971.45
2019-01-28T00:40:36.950Z,971.45
2019-01-28T00:41:36.940Z,971.49
2019-01-28T00:42:36.984Z,971.48
2019-01-28T00:43:36.921Z,971.45
2019-01-28T00:44:36.920Z,971.45
2019-01-28T00:45:36.901Z,971.47
2019-01-28T00:46:36.898Z,971.46
2019-01-28T00:47:36.889Z,971.48
2019-01-28T00:48:36.872Z,971.5
2019-01-28T00:49:36.859Z,971.49
2019-01-28T00:50:36.851Z,971.51
2019-01-28T00:51:36.842Z,971.49
2019-01-28T00:52:36.830Z,971.49
2019-01-28T00:53:36.822Z,971.47
2019-01-28T00:54:36.814Z,971.57
2019-01-28T00:55:36.803Z,971.51
2019-01-28T00:56:36.799Z,971.5
2019-01-28T00:57:36.782Z,971.54
2019-01-28T00:58:36.772Z,971.53
2019-01-28T00:59:36.760Z,971.5
2019-01-28T01:00:36.758Z,971.51
2019-01-28T01:01:36.744Z,971.47
2019-01-28T01:02:36.741Z,971.53
2019-01-28T01:03:36.725Z,971.54
2019-01-28T01:04:36.714Z,971.6
2019-01-28T01:05:36.709Z,971.57
2019-01-28T01:06:36.693Z,971.59
2019-01-28T01:07:36.684Z,971.6
2019-01-28T01:08:36.679Z,971.61
2019-01-28T01:09:36.663Z,971.54
2019-01-28T01:10:36.653Z,971.59
2019-01-28T01:11:36.647Z,971.66
2019-01-28T01:12:36.639Z,971.66
2019-01-28T01:13:36.623Z,971.64
2019-01-28T01:14:36.622Z,971.67
2019-01-28T01:15:36.599Z,971.61
2019-01-28T01:16:36.590Z,971.67
2019-01-28T01:17:36.587Z,971.68
2019-01-28T01:18:36.570Z,971.69
2019-01-28T01:19:36.560Z,971.69
2019-01-28T01:20:36.551Z,971.66
2019-01-28T01:21:36.543Z,971.67
2019-01-28T01:22:36.531Z,971.64
2019-01-28T01:23:36.528Z,971.59
2019-01-28T01:24:36.517Z,971.64
2019-01-28T01:25:36.498Z,971.63
2019-01-28T01:26:36.489Z,971.64
2019-01-28T01:27:36.477Z,971.65
2019-01-28T01:28:36.470Z,971.63
2019-01-28T01:29:36.462Z,971.66
2019-01-28T01:30:36.465Z,971.69
2019-01-28T01:31:36.436Z,971.7
2019-01-28T01:32:36.426Z,971.66
2019-01-28T01:33:36.418Z,971.68
2019-01-28T01:34:36.424Z,971.64
2019-01-28T01:35:36.396Z,971.67
2019-01-28T01:36:36.389Z,971.63
2019-01-28T01:37:36.378Z,971.64
2019-01-28T01:38:36.368Z,971.62
2019-01-28T01:39:36.356Z,971.64
2019-01-28T01:40:36.356Z,971.63
2019-01-28T01:41:36.337Z,971.57
2019-01-28T01:42:36.333Z,971.56
2019-01-28T01:43:36.315Z,971.59
2019-01-28T01:44:36.308Z,971.59
2019-01-28T01:45:36.298Z,971.55
2019-01-28T01:46:36.286Z,971.59
2019-01-28T01:47:36.277Z,971.6
2019-01-28T01:48:36.266Z,971.56
2019-01-28T01:49:36.254Z,971.53
2019-01-28T01:50:36.246Z,971.54
2019-01-28T01:51:36.232Z,971.56
2019-01-28T01:52:36.224Z,971.54
2019-01-28T01:53:36.215Z,971.57
2019-01-28T01:54:36.202Z,971.53
2019-01-28T01:55:36.200Z,971.48
2019-01-28T01:56:36.183Z,971.5
2019-01-28T01:57:36.171Z,971.44
2019-01-28T01:58:36.161Z,971.47
2019-01-28T01:59:36.153Z,971.46
2019-01-28T02:00:36.159Z,971.43
2019-01-28T02:01:36.131Z,971.41
2019-01-28T02:02:36.121Z,971.36
2019-01-28T02:03:36.110Z,971.36
2019-01-28T02:04:36.106Z,971.31
2019-01-28T02:05:36.095Z,971.31
2019-01-28T02:06:36.080Z,971.31
2019-01-28T02:07:36.071Z,971.27
2019-01-28T02:08:36.056Z,971.26
2019-01-28T02:09:36.057Z,971.26
2019-01-28T02:10:36.034Z,971.28
2019-01-28T02:11:36.036Z,971.28
2019-01-28T02:12:36.015Z,971.26
2019-01-28T02:13:36.008Z,971.25
2019-01-28T02:14:36.017Z,971.2
2019-01-28T02:15:35.999Z,971.18
2019-01-28T02:16:35.973Z,971.15
2019-01-28T02:17:35.961Z,971.1
2019-01-28T02:18:35.954Z,971.09
2019-01-28T02:19:35.942Z,971.17
2019-01-28T02:20:35.939Z,971.13
2019-01-28T02:21:35.926Z,971.15
2019-01-28T02:22:35.909Z,971.17
2019-01-28T02:23:35.896Z,971.14
2019-01-28T02:24:35.892Z,971.13
2019-01-28T02:25:35.886Z,971.11
2019-01-28T02:26:35.876Z,971.11
2019-01-28T02:27:35.862Z,971.11
2019-01-28T02:28:35.850Z,971.08
2019-01-28T02:29:35.837Z,971.08
2019-01-28T02:30:35.823Z,971.02
2019-01-28T02:31:35.824Z,971.05
2019-01-28T02:32:35.798Z,971.07
2019-01-28T02:33:35.802Z,971.06
2019-01-28T02:34:35.775Z,971.02
2019-01-28T02:35:36.069Z,971.09
2019-01-28T02:36:35.754Z,971.04
2019-01-28T02:37:35.749Z,971.02
2019-01-28T02:38:35.746Z,970.99
2019-01-28T02:39:35.724Z,971.04
2019-01-28T02:40:35.722Z,971.04
2019-01-28T02:41:35.700Z,971.07
2019-01-28T02:42:35.689Z,971.04
2019-01-28T02:43:35.676Z,971.01
2019-01-28T02:44:35.666Z,971.03
2019-01-28T02:45:35.655Z,971.04
2019-01-28T02:46:35.644Z,971.04
2019-01-28T02:47:35.631Z,971.09
2019-01-28T02:48:35.628Z,971.08
2019-01-28T02:49:35.610Z,971.09
2019-01-28T02:50:35.607Z,971.08
2019-01-28T02:51:35.593Z,971.1
2019-01-28T02:52:35.581Z,971.08
2019-01-28T02:53:35.569Z,971.12
2019-01-28T02:54:35.555Z,971.11
2019-01-28T02:55:35.545Z,971.11
2019-01-28T02:56:35.538Z,971.14
2019-01-28T02:57:35.521Z,971.13
2019-01-28T02:58:35.512Z,971.16
2019-01-28T02:59:35.504Z,971.14
2019-01-28T03:00:35.488Z,971.18
2019-01-28T03:01:35.484Z,971.17
2019-01-28T03:02:35.468Z,971.19
2019-01-28T03:03:35.461Z,971.17
2019-01-28T03:04:35.447Z,971.1
2019-01-28T03:05:36.483Z,971.12
2019-01-28T03:06:35.420Z,971.07
2019-01-28T03:07:35.414Z,971.1
2019-01-28T03:08:35.405Z,971.16
2019-01-28T03:09:35.388Z,971.17
2019-01-28T03:10:35.376Z,971.11
2019-01-28T03:11:35.365Z,971.06
2019-01-28T03:12:35.360Z,971.07
2019-01-28T03:13:35.341Z,971.09
2019-01-28T03:14:35.331Z,971.21
2019-01-28T03:15:35.317Z,971.21
2019-01-28T03:16:35.318Z,971.19
2019-01-28T03:17:35.298Z,971.16
2019-01-28T03:18:35.286Z,971.18
2019-01-28T03:19:35.279Z,971.17
2019-01-28T03:20:35.264Z,971.12
2019-01-28T03:21:35.253Z,971.15
2019-01-28T03:22:35.237Z,971.19
2019-01-28T03:23:35.230Z,971.18
2019-01-28T03:24:35.219Z,971.18
2019-01-28T03:25:35.205Z,971.14
2019-01-28T03:26:35.195Z,971.14
2019-01-28T03:27:35.186Z,971.13
2019-01-28T03:28:35.174Z,971.14
2019-01-28T03:29:35.162Z,971.13
2019-01-28T03:30:35.153Z,971.12
2019-01-28T03:31:35.152Z,971.08
2019-01-28T03:32:35.132Z,971.08
2019-01-28T03:33:35.121Z,971.1
2019-01-28T03:34:35.106Z,971.03
2019-01-28T03:35:35.111Z,971.03
2019-01-28T03:36:35.122Z,971.01
2019-01-28T03:37:35.090Z,971.02
2019-01-28T03:38:35.065Z,971.02
2019-01-28T03:39:35.054Z,971
2019-01-28T03:40:35.046Z,971.05
2019-01-28T03:41:35.032Z,971.02
2019-01-28T03:42:35.023Z,971.02
2019-01-28T03:43:35.009Z,971.05
2019-01-28T03:44:34.998Z,971.02
2019-01-28T03:45:34.990Z,971.05
2019-01-28T03:46:34.985Z,971.06
2019-01-28T03:47:34.968Z,971.07
2019-01-28T03:48:34.982Z,971.09
2019-01-28T03:49:34.952Z,971.12
2019-01-28T03:50:34.939Z,971.12
2019-01-28T03:51:34.922Z,971.08
2019-01-28T03:52:34.916Z,971.09
2019-01-28T03:53:34.922Z,971.07
2019-01-28T03:54:34.919Z,971.1
2019-01-28T03:55:34.886Z,971.08
2019-01-28T03:56:34.864Z,971.07
2019-01-28T03:57:34.866Z,971.04
2019-01-28T03:58:34.841Z,971.01
2019-01-28T03:59:34.838Z,970.96
2019-01-28T04:00:34.820Z,971
2019-01-28T04:01:34.811Z,970.96
2019-01-28T04:02:34.809Z,970.95
2019-01-28T04:03:34.786Z,970.97
2019-01-28T04:04:34.774Z,970.96
2019-01-28T04:05:34.763Z,971.02
2019-01-28T04:06:34.750Z,971
2019-01-28T04:07:34.748Z,970.95
2019-01-28T04:08:34.729Z,971
2019-01-28T04:09:34.724Z,971
2019-01-28T04:10:34.707Z,971.04
2019-01-28T04:11:34.693Z,971.05
2019-01-28T04:12:34.685Z,971.01
2019-01-28T04:13:34.674Z,970.99
2019-01-28T04:14:34.667Z,971.03
2019-01-28T04:15:34.648Z,971.05
2019-01-28T04:16:34.640Z,971.09
2019-01-28T04:17:34.630Z,971.09
2019-01-28T04:18:34.621Z,971.11
2019-01-28T04:19:34.605Z,971.11
2019-01-28T04:20:34.591Z,971.12
2019-01-28T04:21:34.583Z,971.14
2019-01-28T04:22:34.579Z,971.19
2019-01-28T04:23:34.568Z,971.17
2019-01-28T04:24:34.548Z,971.15
2019-01-28T04:25:34.542Z,971.18
2019-01-28T04:26:34.529Z,971.13
2019-01-28T04:27:34.534Z,971.14
2019-01-28T04:28:34.506Z,971.13
2019-01-28T04:29:34.499Z,971.14
2019-01-28T04:30:34.509Z,971.15
2019-01-28T04:31:34.474Z,971.13
2019-01-28T04:32:34.477Z,971.12
2019-01-28T04:33:34.453Z,971.17
2019-01-28T04:34:34.441Z,971.16
2019-01-28T04:35:34.439Z,971.13
2019-01-28T04:36:34.427Z,971.14
2019-01-28T04:37:34.406Z,971.15
2019-01-28T04:38:34.417Z,971.16
2019-01-28T04:39:34.414Z,971.13
2019-01-28T04:40:34.380Z,971.13
2019-01-28T04:41:34.370Z,971.14
2019-01-28T04:42:34.357Z,971.17
2019-01-28T04:43:34.352Z,971.12
2019-01-28T04:44:34.356Z,971.16
2019-01-28T04:45:34.340Z,971.09
2019-01-28T04:46:34.327Z,971.12
2019-01-28T04:47:34.304Z,971.12
2019-01-28T04:48:34.300Z,971.11
2019-01-28T04:49:34.283Z,971.11
2019-01-28T04:50:34.275Z,971.11
2019-01-28T04:51:34.254Z,971.12
2019-01-28T04:52:34.249Z,971.1
2019-01-28T04:53:34.227Z,971.1
2019-01-28T04:54:34.216Z,971.12
2019-01-28T04:55:34.223Z,971.08
2019-01-28T04:56:34.211Z,971.12
2019-01-28T04:57:34.185Z,971.09
2019-01-28T04:58:34.178Z,971.13
2019-01-28T04:59:34.185Z,971.12
2019-01-28T05:00:34.149Z,971.07
2019-01-28T05:01:34.140Z,971.12
2019-01-28T05:02:34.129Z,971.12
2019-01-28T05:03:34.117Z,971.09
2019-01-28T05:04:34.109Z,971.13
2019-01-28T05:05:34.098Z,971.11
2019-01-28T05:06:34.088Z,971.13
2019-01-28T05:07:34.077Z,971.13
2019-01-28T05:08:34.070Z,971.14
2019-01-28T05:09:34.054Z,971.12
2019-01-28T05:10:34.044Z,971.11
2019-01-28T05:11:34.032Z,971.1
2019-01-28T05:12:34.022Z,971.11
2019-01-28T05:13:34.015Z,971.14
2019-01-28T05:14:34.007Z,971.1
2019-01-28T05:15:33.990Z,971.14
2019-01-28T05:16:33.985Z,971.12
2019-01-28T05:17:33.970Z,971.12
2019-01-28T05:18:33.961Z,971.15
2019-01-28T05:19:33.958Z,971.13
2019-01-28T05:20:33.936Z,971.11
2019-01-28T05:21:33.927Z,971.17
2019-01-28T05:22:33.914Z,971.14
2019-01-28T05:23:33.906Z,971.12
2019-01-28T05:24:33.895Z,971.12
2019-01-28T05:25:33.925Z,971.1
2019-01-28T05:26:33.926Z,971.15
2019-01-28T05:27:33.867Z,971.1
2019-01-28T05:28:33.852Z,971.11
2019-01-28T05:29:33.838Z,971.07
2019-01-28T05:30:33.833Z,971.01
2019-01-28T05:31:33.820Z,971.06
2019-01-28T05:32:33.811Z,971.02
2019-01-28T05:33:33.799Z,971.02
2019-01-28T05:34:33.785Z,971.03
2019-01-28T05:35:33.771Z,971
2019-01-28T05:36:33.764Z,971.01
2019-01-28T05:37:33.758Z,970.99
2019-01-28T05:38:33.743Z,971
2019-01-28T05:39:33.737Z,971.02
2019-01-28T05:40:33.724Z,971.04
2019-01-28T05:41:33.710Z,971.04
2019-01-28T05:42:33.700Z,971
2019-01-28T05:43:33.691Z,971.06
2019-01-28T05:44:33.678Z,971.09
2019-01-28T05:45:33.670Z,971.06
2019-01-28T05:46:33.660Z,971.06
2019-01-28T05:47:33.660Z,971.05
2019-01-28T05:48:33.637Z,971.02
2019-01-28T05:49:33.628Z,971.05
2019-01-28T05:50:33.632Z,971.02
2019-01-28T05:51:33.606Z,971.03
2019-01-28T05:52:33.606Z,971.04
2019-01-28T05:53:33.584Z,971.06
2019-01-28T05:54:33.575Z,971.01
2019-01-28T05:55:33.566Z,971.07
2019-01-28T05:56:33.554Z,971.08
2019-01-28T05:57:33.585Z,971.08
2019-01-28T05:58:33.534Z,971.07
2019-01-28T05:59:33.523Z,971.08
2019-01-28T06:00:33.515Z,971.08
2019-01-28T06:01:33.522Z,971.04
2019-01-28T06:02:33.494Z,971.04
2019-01-28T06:03:33.498Z,971.05
2019-01-28T06:04:33.473Z,971.05
2019-01-28T06:05:33.491Z,971.09
2019-01-28T06:06:33.456Z,971.1
2019-01-28T06:07:33.438Z,971.07
2019-01-28T06:08:33.435Z,971.05
2019-01-28T06:09:33.417Z,971.08
2019-01-28T06:10:33.409Z,971.05
2019-01-28T06:11:33.399Z,971.08
2019-01-28T06:12:33.389Z,971.07
2019-01-28T06:13:33.380Z,971.05
2019-01-28T06:14:34.661Z,971.08
2019-01-28T06:15:33.355Z,971.06
2019-01-28T06:16:33.346Z,971.06
2019-01-28T06:17:38.784Z,971.1
2019-01-28T06:18:33.330Z,971.08
2019-01-28T06:19:33.314Z,971.12
2019-01-28T06:20:33.313Z,971.07
2019-01-28T06:21:33.293Z,971.09
2019-01-28T06:22:33.281Z,971.07
2019-01-28T06:23:33.276Z,971.07
2019-01-28T06:24:33.271Z,971.14
2019-01-28T06:25:33.251Z,971.15
2019-01-28T06:26:33.247Z,971.17
2019-01-28T06:27:33.229Z,971.13
2019-01-28T06:28:33.222Z,971.12
2019-01-28T06:29:33.207Z,971.12
2019-01-28T06:30:33.199Z,971.17
2019-01-28T06:31:33.187Z,971.16
2019-01-28T06:32:33.178Z,971.17
2019-01-28T06:33:33.171Z,971.2
2019-01-28T06:34:33.161Z,971.23
2019-01-28T06:35:33.147Z,971.16
2019-01-28T06:36:33.148Z,971.15
2019-01-28T06:37:33.278Z,971.21
2019-01-28T06:38:33.115Z,971.18
2019-01-28T06:39:33.104Z,971.18
2019-01-28T06:40:33.104Z,971.17
2019-01-28T06:41:33.092Z,971.16
2019-01-28T06:42:33.085Z,971.14
2019-01-28T06:43:33.072Z,971.15
2019-01-28T06:44:33.049Z,971.18
2019-01-28T06:45:33.041Z,971.14
2019-01-28T06:46:33.038Z,971.18
2019-01-28T06:47:33.020Z,971.18
2019-01-28T06:48:33.014Z,971.2
2019-01-28T06:49:33.014Z,971.17
2019-01-28T06:50:32.990Z,971.15
2019-01-28T06:51:32.976Z,971.15
2019-01-28T06:52:32.971Z,971.14
2019-01-28T06:53:32.958Z,971.16
2019-01-28T06:54:32.946Z,971.1
2019-01-28T06:55:32.947Z,971.15
2019-01-28T06:56:32.934Z,971.14
2019-01-28T06:57:32.916Z,971.18
2019-01-28T06:58:32.908Z,971.18
2019-01-28T06:59:32.897Z,971.15
2019-01-28T07:00:32.881Z,971.27
2019-01-28T07:01:32.872Z,971.18
2019-01-28T07:02:32.863Z,971.18
2019-01-28T07:03:32.852Z,971.21
2019-01-28T07:04:32.849Z,971.2
2019-01-28T07:05:32.831Z,971.16
2019-01-28T07:06:32.829Z,971.18
2019-01-28T07:07:32.811Z,971.2
2019-01-28T07:08:32.796Z,971.2
2019-01-28T07:09:32.789Z,971.21
2019-01-28T07:10:32.781Z,971.17
2019-01-28T07:11:32.771Z,971.2
2019-01-28T07:12:32.762Z,971.21
2019-01-28T07:13:32.746Z,971.2
2019-01-28T07:14:32.732Z,971.24
2019-01-28T07:15:32.725Z,971.26
2019-01-28T07:16:32.712Z,971.26
2019-01-28T07:17:32.711Z,971.25
2019-01-28T07:18:32.692Z,971.25
2019-01-28T07:19:32.688Z,971.23
2019-01-28T07:20:32.674Z,971.28
2019-01-28T07:21:32.661Z,971.24
2019-01-28T07:22:32.652Z,971.26
2019-01-28T07:23:32.640Z,971.28
2019-01-28T07:24:32.627Z,971.3
2019-01-28T07:25:32.629Z,971.27
2019-01-28T07:26:32.609Z,971.26
2019-01-28T07:27:32.602Z,971.22
2019-01-28T07:28:32.597Z,971.29
2019-01-28T07:29:32.582Z,971.23
2019-01-28T07:30:32.568Z,971.23
2019-01-28T07:31:32.560Z,971.23
2019-01-28T07:32:32.547Z,971.19
2019-01-28T07:33:32.538Z,971.23
2019-01-28T07:34:32.525Z,971.23
2019-01-28T07:35:32.517Z,971.2
2019-01-28T07:36:32.507Z,971.23
2019-01-28T07:37:32.497Z,971.27
2019-01-28T07:38:32.490Z,971.23
2019-01-28T07:39:32.474Z,971.28
2019-01-28T07:40:32.466Z,971.37
2019-01-28T07:41:32.456Z,971.29
2019-01-28T07:42:32.444Z,971.3
2019-01-28T07:43:32.436Z,971.28
2019-01-28T07:44:32.425Z,971.29
2019-01-28T07:45:32.420Z,971.3
2019-01-28T07:46:32.409Z,971.34
2019-01-28T07:47:32.401Z,971.23
2019-01-28T07:48:32.386Z,971.3
2019-01-28T07:49:32.374Z,971.29
2019-01-28T07:50:32.365Z,971.3
2019-01-28T07:51:32.355Z,971.24
2019-01-28T07:52:32.343Z,971.23
2019-01-28T07:53:32.332Z,971.32
2019-01-28T07:54:32.327Z,971.27
2019-01-28T07:55:32.315Z,971.31
2019-01-28T07:56:32.305Z,971.3
2019-01-28T07:57:32.293Z,971.27
2019-01-28T07:58:32.283Z,971.31
2019-01-28T07:59:32.276Z,971.32
2019-01-28T08:00:32.265Z,971.27
2019-01-28T08:01:32.255Z,971.33
2019-01-28T08:02:32.248Z,971.36
2019-01-28T08:03:32.234Z,971.29
2019-01-28T08:04:32.230Z,971.32
2019-01-28T08:05:32.218Z,971.33
2019-01-28T08:06:32.218Z,971.33
2019-01-28T08:07:32.200Z,971.33
2019-01-28T08:08:32.205Z,971.36
2019-01-28T08:09:32.180Z,971.34
2019-01-28T08:10:32.171Z,971.36
2019-01-28T08:11:32.155Z,971.37
2019-01-28T08:12:32.148Z,971.36
2019-01-28T08:13:32.144Z,971.43
2019-01-28T08:14:32.128Z,971.38
2019-01-28T08:15:32.128Z,971.33
2019-01-28T08:16:32.123Z,971.37
2019-01-28T08:17:32.103Z,971.31
2019-01-28T08:18:32.095Z,971.33
2019-01-28T08:19:32.085Z,971.39
2019-01-28T08:20:32.073Z,971.4
2019-01-28T08:21:32.064Z,971.4
2019-01-28T08:22:32.053Z,971.39
2019-01-28T08:23:32.047Z,971.38
2019-01-28T08:24:32.041Z,971.4
2019-01-28T08:25:32.031Z,971.35
2019-01-28T08:26:32.019Z,971.36
2019-01-28T08:27:32.006Z,971.3
2019-01-28T08:28:36.777Z,971.31
2019-01-28T08:29:31.989Z,971.36
2019-01-28T08:30:31.994Z,971.31
2019-01-28T08:31:31.969Z,971.28
2019-01-28T08:32:31.963Z,971.32
2019-01-28T08:33:31.968Z,971.27
2019-01-28T08:34:31.944Z,971.28
2019-01-28T08:35:31.937Z,971.21
2019-01-28T08:36:31.925Z,971.27
2019-01-28T08:37:31.931Z,971.28
2019-01-28T08:38:31.917Z,971.27
2019-01-28T08:39:31.911Z,971.28
2019-01-28T08:40:31.899Z,971.34
2019-01-28T08:41:31.878Z,971.29
2019-01-28T08:42:31.873Z,971.28
2019-01-28T08:43:31.865Z,971.36
2019-01-28T08:44:31.852Z,971.34
2019-01-28T08:45:31.844Z,971.3
2019-01-28T08:46:31.836Z,971.34
2019-01-28T08:47:31.825Z,971.37
2019-01-28T08:48:31.825Z,971.3
2019-01-28T08:49:31.809Z,971.33
2019-01-28T08:50:31.798Z,971.38
2019-01-28T08:51:31.790Z,971.4
2019-01-28T08:52:31.801Z,971.43
2019-01-28T08:53:31.773Z,971.36
2019-01-28T08:54:31.766Z,971.32
2019-01-28T08:55:31.752Z,971.38
2019-01-28T08:56:31.747Z,971.37
2019-01-28T08:57:31.736Z,971.33
2019-01-28T08:58:31.729Z,971.32
2019-01-28T08:59:31.719Z,971.29
2019-01-28T09:00:31.717Z,971.33
2019-01-28T09:01:31.706Z,971.31
2019-01-28T09:02:31.709Z,971.3
2019-01-28T09:03:31.686Z,971.31
2019-01-28T09:04:31.681Z,971.26
2019-01-28T09:05:31.667Z,971.27
2019-01-28T09:06:31.665Z,971.24
2019-01-28T09:07:31.652Z,971.27
2019-01-28T09:08:31.643Z,971.29
2019-01-28T09:09:31.889Z,971.34
2019-01-28T09:10:31.637Z,971.31
2019-01-28T09:11:31.620Z,971.34
2019-01-28T09:12:31.610Z,971.32
2019-01-28T09:13:31.606Z,971.37
2019-01-28T09:14:31.594Z,971.31
2019-01-28T09:15:31.598Z,971.32
2019-01-28T09:16:31.583Z,971.38
2019-01-28T09:17:31.566Z,971.36
2019-01-28T09:18:31.563Z,971.34
2019-01-28T09:19:31.553Z,971.37
2019-01-28T09:20:31.544Z,971.41
2019-01-28T09:21:31.536Z,971.32
2019-01-28T09:22:31.528Z,971.4
2019-01-28T09:23:31.529Z,971.4
2019-01-28T09:24:31.513Z,971.45
2019-01-28T09:25:31.503Z,971.44
2019-01-28T09:26:31.492Z,971.4
2019-01-28T09:27:31.485Z,971.47
2019-01-28T09:28:31.480Z,971.44
2019-01-28T09:29:31.467Z,971.51
2019-01-28T09:30:31.462Z,971.49
2019-01-28T09:31:31.455Z,971.49
2019-01-28T09:32:31.448Z,971.47
2019-01-28T09:33:31.437Z,971.49
2019-01-28T09:34:31.428Z,971.48
2019-01-28T09:35:31.416Z,971.42
2019-01-28T09:36:31.412Z,971.46
2019-01-28T09:37:31.408Z,971.46
2019-01-28T09:38:31.407Z,971.47
2019-01-28T09:39:31.536Z,971.47
2019-01-28T09:40:31.377Z,971.55
2019-01-28T09:41:35.492Z,971.46
2019-01-28T09:42:31.360Z,971.5
2019-01-28T09:43:31.377Z,971.53
2019-01-28T09:44:31.355Z,971.61
2019-01-28T09:45:31.381Z,971.58
2019-01-28T09:46:31.327Z,971.56
2019-01-28T09:47:31.317Z,971.53
2019-01-28T09:48:34.270Z,971.57
2019-01-28T09:49:31.310Z,971.57
2019-01-28T09:50:31.291Z,971.6
2019-01-28T09:51:31.287Z,971.63
2019-01-28T09:52:31.293Z,971.62
2019-01-28T09:53:31.271Z,971.67
2019-01-28T09:54:31.260Z,971.61
2019-01-28T09:55:31.250Z,971.6
2019-01-28T09:56:31.251Z,971.69
2019-01-28T09:57:31.232Z,971.71
2019-01-28T09:58:31.223Z,971.7
2019-01-28T09:59:31.217Z,971.8
2019-01-28T10:00:31.213Z,971.65
2019-01-28T10:01:31.200Z,971.63
2019-01-28T10:02:31.191Z,971.7
2019-01-28T10:03:31.183Z,971.7
2019-01-28T10:04:31.174Z,971.73
2019-01-28T10:05:31.166Z,971.72
2019-01-28T10:06:31.163Z,971.72
2019-01-28T10:07:31.160Z,971.66
2019-01-28T10:08:31.143Z,971.66
2019-01-28T10:09:31.938Z,971.66
2019-01-28T10:10:31.127Z,971.75
2019-01-28T10:11:31.118Z,971.71
2019-01-28T10:12:31.111Z,971.72
2019-01-28T10:13:31.101Z,971.69
2019-01-28T10:14:31.108Z,971.7
2019-01-28T10:15:31.091Z,971.75
2019-01-28T10:16:31.082Z,971.7
2019-01-28T10:17:31.080Z,971.77
2019-01-28T10:18:31.064Z,971.74
2019-01-28T10:19:31.062Z,971.74
2019-01-28T10:20:31.057Z,971.73
2019-01-28T10:21:31.050Z,971.69
2019-01-28T10:22:31.035Z,971.68
2019-01-28T10:23:31.023Z,971.71
2019-01-28T10:24:31.019Z,971.7
2019-01-28T10:25:31.010Z,971.71
2019-01-28T10:26:31.010Z,971.7
2019-01-28T10:27:30.992Z,971.67
2019-01-28T10:28:31.001Z,971.66
2019-01-28T10:29:30.975Z,971.78
2019-01-28T10:30:30.965Z,971.74
2019-01-28T10:31:30.960Z,971.69
2019-01-28T10:32:35.898Z,971.77
2019-01-28T10:33:30.943Z,971.76
2019-01-28T10:34:30.942Z,971.75
2019-01-28T10:35:30.929Z,971.78
2019-01-28T10:36:34.189Z,971.77
2019-01-28T10:37:30.933Z,971.76
2019-01-28T10:38:30.902Z,971.77
2019-01-28T10:39:30.893Z,971.73
2019-01-28T10:40:30.887Z,971.7
2019-01-28T10:41:30.878Z,971.73
2019-01-28T10:42:30.884Z,971.66
2019-01-28T10:43:30.860Z,971.74
2019-01-28T10:44:30.862Z,971.78
2019-01-28T10:45:30.848Z,971.77
2019-01-28T10:46:30.856Z,971.72
2019-01-28T10:47:30.828Z,971.69
2019-01-28T10:48:30.834Z,971.67
2019-01-28T10:49:30.821Z,971.68
2019-01-28T10:50:30.806Z,971.64
2019-01-28T10:51:30.807Z,971.68
2019-01-28T10:52:30.789Z,971.72
2019-01-28T10:53:30.788Z,971.68
2019-01-28T10:54:30.780Z,971.7
2019-01-28T10:55:30.756Z,971.65
2019-01-28T10:56:30.750Z,971.71
2019-01-28T10:57:30.743Z,971.74
2019-01-28T10:58:30.732Z,971.65
2019-01-28T10:59:30.723Z,971.68
2019-01-28T11:00:30.718Z,971.69
2019-01-28T11:01:30.709Z,971.66
2019-01-28T11:02:30.697Z,971.68
2019-01-28T11:03:30.693Z,971.72
2019-01-28T11:04:30.680Z,971.61
2019-01-28T11:05:30.672Z,971.65
2019-01-28T11:06:30.661Z,971.73
2019-01-28T11:07:30.655Z,971.6
2019-01-28T11:08:30.645Z,971.63
2019-01-28T11:09:30.739Z,971.64
2019-01-28T11:10:30.711Z,971.6
2019-01-28T11:11:30.629Z,971.66
2019-01-28T11:12:30.633Z,971.61
2019-01-28T11:13:30.687Z,971.64
2019-01-28T11:14:30.618Z,971.66
2019-01-28T11:15:30.608Z,971.64
2019-01-28T11:16:30.574Z,971.6
2019-01-28T11:17:30.675Z,971.6
2019-01-28T11:18:30.569Z,971.59
2019-01-28T11:19:32.127Z,971.62
2019-01-28T11:20:30.636Z,971.65
2019-01-28T11:21:30.582Z,971.59
2019-01-28T11:22:30.608Z,971.58
2019-01-28T11:23:32.211Z,971.64
2019-01-28T11:24:30.625Z,971.62
2019-01-28T11:25:30.543Z,971.63
2019-01-28T11:26:30.629Z,971.58
2019-01-28T11:27:30.557Z,971.62
2019-01-28T11:28:30.495Z,971.58
2019-01-28T11:29:30.464Z,971.63
2019-01-28T11:30:30.495Z,971.63
2019-01-28T11:31:30.560Z,971.56
2019-01-28T11:32:30.453Z,971.57
2019-01-28T11:33:30.551Z,971.54
2019-01-28T11:34:30.516Z,971.53
2019-01-28T11:35:30.624Z,971.55
2019-01-28T11:36:30.403Z,971.51
2019-01-28T11:37:30.560Z,971.5
2019-01-28T11:38:30.450Z,971.5
2019-01-28T11:39:30.429Z,971.59
2019-01-28T11:40:30.481Z,971.59
2019-01-28T11:41:30.362Z,971.57
2019-01-28T11:42:30.532Z,971.61
2019-01-28T11:43:30.497Z,971.56
2019-01-28T11:44:30.338Z,971.62
2019-01-28T11:45:30.345Z,971.54
2019-01-28T11:46:30.429Z,971.55
2019-01-28T11:47:30.317Z,971.61
2019-01-28T11:48:30.342Z,971.56
2019-01-28T11:49:30.297Z,971.6
2019-01-28T11:50:30.291Z,971.6
2019-01-28T11:51:30.286Z,971.55
2019-01-28T11:52:30.280Z,971.55
2019-01-28T11:53:30.264Z,971.57
2019-01-28T11:54:30.275Z,971.55
2019-01-28T11:55:30.259Z,971.59
2019-01-28T11:56:30.242Z,971.56
2019-01-28T11:57:30.233Z,971.67
2019-01-28T11:58:30.227Z,971.58
2019-01-28T11:59:30.231Z,971.59
2019-01-28T12:00:30.215Z,971.64
2019-01-28T12:01:30.202Z,971.61
2019-01-28T12:02:34.307Z,971.53
2019-01-28T12:03:30.182Z,971.57
2019-01-28T12:04:30.173Z,971.62
2019-01-28T12:05:30.168Z,971.62
2019-01-28T12:06:30.169Z,971.56
2019-01-28T12:07:30.160Z,971.49
2019-01-28T12:08:30.142Z,971.52
2019-01-28T12:09:30.132Z,971.57
2019-01-28T12:10:30.925Z,971.67
2019-01-28T12:11:30.118Z,971.53
2019-01-28T12:12:30.110Z,971.57
2019-01-28T12:13:30.167Z,971.56
2019-01-28T12:14:30.093Z,971.56
2019-01-28T12:15:30.081Z,971.58
2019-01-28T12:16:30.074Z,971.59
2019-01-28T12:17:30.065Z,971.61
2019-01-28T12:18:30.055Z,971.55
2019-01-28T12:19:30.050Z,971.56
2019-01-28T12:20:30.042Z,971.64
2019-01-28T12:21:30.028Z,971.57
2019-01-28T12:22:30.025Z,971.61
2019-01-28T12:23:34.443Z,971.66
2019-01-28T12:24:30.006Z,971.61
2019-01-28T12:25:29.995Z,971.6
2019-01-28T12:26:29.993Z,971.61
2019-01-28T12:27:29.978Z,971.6
2019-01-28T12:28:29.969Z,971.65
2019-01-28T12:29:29.960Z,971.62
2019-01-28T12:30:29.953Z,971.61
2019-01-28T12:31:29.943Z,971.57